Clovis ASC

2020-09-27 21:25:00

  • imperial
Date Time Air Temperature Relative Humidity Dewpoint Windchill Heat Index Wind Speed Wind Dir. Rain Solar Radiation Soil Temperature Soil Temperature
2m 2m 3m 3m 5cm 10cm
US/Mountain F % F F F MPH deg in MJ/m^2 F F
max avg avg
2020-09-26 21:35:00 71.2 17.5 24.9 71.2 71.2 6.5 8.7 6.2 253.4 256.3 0.00 0.0000000 77.8 79.5
2020-09-26 21:40:00 71.0 17.9 25.2 71.0 71.0 7.2 8.3 7.0 259.1 250.4 0.00 0.0000000 77.6 79.4
2020-09-26 21:45:00 70.4 18.6 25.6 70.4 70.4 6.3 8.5 6.9 253.7 253.0 0.00 0.0000000 77.5 79.2
2020-09-26 21:50:00 69.6 19.2 25.7 69.6 69.6 8.1 8.5 6.9 226.4 241.0 0.00 0.0000000 77.3 79.1
2020-09-26 21:55:00 68.8 20.1 26.2 68.8 68.8 7.4 8.7 6.9 244.2 259.0 0.00 0.0000000 77.1 79.0
2020-09-26 22:00:00 68.8 19.7 25.7 68.8 68.8 6.3 9.2 6.9 249.0 254.2 0.00 0.0000000 77.0 78.9
2020-09-26 22:05:00 69.0 19.8 26.1 69.0 69.0 7.4 9.2 7.2 253.3 260.0 0.00 0.0000000 76.8 78.8
2020-09-26 22:10:00 69.1 19.6 25.9 69.1 69.1 6.5 9.9 7.4 261.8 258.4 0.00 0.0000000 76.7 78.7
2020-09-26 22:15:00 68.8 20.5 26.6 68.8 68.8 8.0 9.0 7.3 278.0 267.2 0.00 0.0000000 76.5 78.6
2020-09-26 22:20:00 68.7 20.3 26.3 68.7 68.7 7.8 9.7 7.9 252.6 262.9 0.00 0.0000000 76.4 78.4
2020-09-26 22:25:00 69.2 19.6 25.9 69.2 69.2 8.1 10.8 8.4 258.2 259.0 0.00 0.0000000 76.2 78.4
2020-09-26 22:30:00 69.7 19.6 26.3 69.7 69.7 8.7 11.3 8.4 249.6 257.8 0.00 0.0000000 76.1 78.2
2020-09-26 22:35:00 69.4 19.8 26.3 69.4 69.4 8.8 9.7 8.3 265.6 259.9 0.00 0.0000000 76.0 78.1
2020-09-26 22:40:00 69.0 20.1 26.4 69.0 69.0 8.3 9.6 7.9 276.3 260.6 0.00 0.0000000 75.8 78.0
2020-09-26 22:45:00 68.8 20.2 26.3 68.8 68.8 7.1 9.4 7.8 241.6 254.5 0.00 0.0000000 75.7 77.9
2020-09-26 22:50:00 68.8 20.3 26.5 68.8 68.8 8.1 10.6 8.0 273.4 259.5 0.00 0.0000000 75.6 77.8
2020-09-26 22:55:00 68.8 20.5 26.6 68.8 68.8 7.4 9.9 7.9 255.4 261.3 0.00 0.0000000 75.4 77.7
2020-09-26 23:00:00 68.1 20.5 26.2 68.1 68.1 7.4 9.6 7.3 270.9 255.3 0.00 0.0000000 75.3 77.6
2020-09-26 23:05:00 68.3 20.9 26.7 68.3 68.3 8.0 9.4 7.9 281.8 256.3 0.00 0.0000000 75.2 77.5
2020-09-26 23:10:00 67.1 21.7 26.6 67.1 67.1 8.0 8.5 7.1 249.7 270.3 0.00 0.0000000 75.0 77.4
2020-09-26 23:15:00 66.6 22.4 27.0 66.6 66.6 8.3 9.6 7.7 266.7 258.3 0.00 0.0000000 74.9 77.3
2020-09-26 23:20:00 66.1 22.7 26.9 66.1 66.1 8.0 9.4 7.8 289.5 262.3 0.00 0.0000000 74.8 77.2
2020-09-26 23:25:00 65.5 23.0 26.7 65.5 65.5 8.1 9.6 7.4 264.3 266.0 0.00 0.0000000 74.7 77.1
2020-09-26 23:30:00 65.0 23.7 27.0 65.0 65.0 7.8 9.4 7.3 218.8 260.0 0.00 0.0000000 74.6 77.0
2020-09-26 23:35:00 64.6 23.8 26.8 64.6 64.6 8.5 8.5 7.2 277.4 262.5 0.00 0.0000000 74.4 77.0
2020-09-26 23:40:00 64.7 23.1 26.2 64.7 64.7 7.1 9.2 7.3 280.5 262.8 0.00 0.0000000 74.3 76.9
2020-09-26 23:45:00 64.8 22.3 25.4 64.8 64.8 5.6 8.8 7.0 276.1 274.5 0.00 0.0000000 74.1 76.8
2020-09-26 23:50:00 64.7 21.7 24.7 64.7 64.7 6.7 8.1 6.4 270.9 272.3 0.00 0.0000000 74.0 76.7
2020-09-26 23:55:00 65.4 21.2 24.6 65.4 65.4 6.7 8.5 7.0 277.4 270.4 0.00 0.0000000 73.9 76.6
2020-09-27 00:00:00 65.5 21.8 25.5 65.5 65.5 5.1 8.1 6.8 279.6 270.9 0.00 0.0000000 73.8 76.5
2020-09-27 00:05:00 64.7 22.9 25.9 64.7 64.7 4.9 7.2 6.0 282.1 266.0 0.00 0.0000000 73.7 76.4
2020-09-27 00:10:00 64.3 22.2 24.9 64.3 64.3 6.2 7.1 6.0 294.0 278.3 0.00 0.0000000 73.6 76.3
2020-09-27 00:15:00 63.8 22.6 24.9 63.8 63.8 6.0 6.5 5.8 285.2 276.9 0.00 0.0000000 73.4 76.2
2020-09-27 00:20:00 63.8 22.3 24.5 63.8 63.8 6.2 6.9 5.9 282.2 283.9 0.00 0.0000000 73.3 76.1
2020-09-27 00:25:00 64.3 21.7 24.2 64.3 64.3 6.2 8.0 6.4 275.3 276.1 0.00 0.0000000 73.2 76.0
2020-09-27 00:30:00 64.4 21.9 24.6 64.4 64.4 6.2 7.4 6.1 286.3 271.1 0.00 0.0000000 73.1 76.0
2020-09-27 00:35:00 64.1 22.3 24.9 64.1 64.1 5.3 7.4 6.4 297.0 277.4 0.00 0.0000000 73.0 75.9
2020-09-27 00:40:00 64.4 21.5 24.1 64.4 64.4 7.1 8.0 6.9 297.6 292.1 0.00 0.0000000 72.9 75.8
2020-09-27 00:45:00 64.7 21.6 24.5 64.7 64.7 7.8 8.5 7.6 296.3 300.9 0.00 0.0000000 72.8 75.7
2020-09-27 00:50:00 66.2 20.3 24.3 66.2 66.2 8.3 8.8 8.1 285.5 294.6 0.00 0.0000000 72.7 75.6
2020-09-27 00:55:00 66.8 20.6 25.2 66.8 66.8 8.7 9.2 8.1 295.3 292.4 0.00 0.0000000 72.6 75.5
2020-09-27 01:00:00 67.2 20.9 25.8 67.2 67.2 8.0 9.0 8.1 312.8 294.9 0.00 0.0000000 72.5 75.5
2020-09-27 01:05:00 67.1 21.4 26.3 67.1 67.1 7.4 8.3 7.7 293.9 290.1 0.00 0.0000000 72.5 75.4
2020-09-27 01:10:00 66.7 22.2 26.8 66.7 66.7 8.5 8.5 7.7 301.9 293.4 0.00 0.0000000 72.4 75.3
2020-09-27 01:15:00 66.0 22.4 26.6 66.0 66.0 8.0 8.5 7.5 293.7 292.7 0.00 0.0000000 72.3 75.2
2020-09-27 01:20:00 65.4 22.0 25.6 65.4 65.4 6.9 7.6 6.8 294.3 302.1 0.00 0.0000000 72.3 75.1
2020-09-27 01:25:00 64.4 23.5 26.3 64.4 64.4 5.8 6.7 5.7 275.2 272.8 0.00 0.0000000 72.2 75.1
2020-09-27 01:30:00 65.0 19.6 22.5 65.0 65.0 8.0 9.2 7.6 288.5 286.7 0.00 0.0000000 72.1 75.0
2020-09-27 01:35:00 65.7 20.9 24.5 65.7 65.7 7.8 8.7 7.8 296.1 290.2 0.00 0.0000000 72.1 74.9
2020-09-27 01:40:00 65.2 20.6 23.8 65.2 65.2 6.3 8.5 7.3 259.7 278.2 0.00 0.0000000 72.0 74.9
2020-09-27 01:45:00 63.4 22.9 24.9 63.4 63.4 4.9 6.3 5.2 258.0 261.0 0.00 0.0000000 71.9 74.8
2020-09-27 01:50:00 62.5 23.2 24.4 62.5 62.5 6.2 6.9 5.7 261.9 264.6 0.00 0.0000000 71.8 74.7
2020-09-27 01:55:00 62.4 23.5 24.6 62.4 62.4 6.2 6.5 5.7 247.1 255.4 0.00 0.0000000 71.7 74.6
2020-09-27 02:00:00 62.0 24.4 25.2 62.0 62.0 5.8 6.7 5.6 235.5 252.0 0.00 0.0000000 71.6 74.6
2020-09-27 02:05:00 61.7 24.5 25.0 61.7 61.7 7.2 8.0 6.3 262.9 254.2 0.00 0.0000000 71.5 74.5
2020-09-27 02:10:00 61.4 24.7 24.9 61.4 61.4 6.7 8.0 6.6 250.3 260.8 0.00 0.0000000 71.4 74.4
2020-09-27 02:15:00 60.8 25.6 25.3 60.8 60.8 5.3 7.4 5.7 257.6 258.2 0.00 0.0000000 71.3 74.4
2020-09-27 02:20:00 60.5 25.0 24.4 60.5 60.5 6.7 7.1 5.6 259.5 261.9 0.00 0.0000000 71.2 74.3
2020-09-27 02:25:00 60.4 25.6 24.9 60.4 60.4 4.9 6.9 5.0 267.9 265.9 0.00 0.0000000 71.1 74.2
2020-09-27 02:30:00 59.1 26.3 24.5 59.1 59.1 4.9 5.1 4.3 282.8 281.5 0.00 0.0000000 70.9 74.1
2020-09-27 02:35:00 58.3 28.2 25.5 58.3 58.3 4.0 4.9 4.4 242.1 273.9 0.00 0.0000000 70.8 74.0
2020-09-27 02:40:00 58.3 27.7 25.0 58.3 58.3 4.7 5.3 4.7 269.2 266.7 0.00 0.0000000 70.7 74.0
2020-09-27 02:45:00 58.4 26.4 23.9 58.4 58.4 5.6 6.9 5.2 285.8 267.9 0.00 0.0000000 70.6 73.9
2020-09-27 02:50:00 59.1 25.7 23.9 59.1 59.1 6.7 7.1 6.0 262.3 273.4 0.00 0.0000000 70.4 73.8
2020-09-27 02:55:00 60.0 24.3 23.3 60.0 60.0 5.8 8.0 6.6 277.1 278.2 0.00 0.0000000 70.3 73.8
2020-09-27 03:00:00 59.9 24.4 23.4 59.9 59.9 5.5 6.9 5.7 279.6 270.7 0.00 0.0000000 70.2 73.7
2020-09-27 03:05:00 60.4 23.8 23.2 60.4 60.4 7.1 8.3 6.8 254.1 270.8 0.00 0.0000000 70.1 73.6
2020-09-27 03:10:00 59.8 24.2 23.1 59.8 59.8 7.1 7.2 6.4 276.5 276.3 0.00 0.0000000 70.0 73.5
2020-09-27 03:15:00 59.6 24.5 23.2 59.6 59.6 7.2 8.1 6.9 274.7 273.5 0.00 0.0000000 69.9 73.4
2020-09-27 03:20:00 59.5 24.3 22.9 59.5 59.5 7.1 8.3 7.2 275.1 277.2 0.00 0.0000000 69.8 73.3
2020-09-27 03:25:00 60.0 23.4 22.5 60.0 60.0 7.1 8.5 7.2 276.9 278.1 0.00 0.0000000 69.7 73.3
2020-09-27 03:30:00 60.5 22.9 22.4 60.5 60.5 6.5 8.0 7.1 289.3 285.3 0.00 0.0000000 69.6 73.2
2020-09-27 03:35:00 61.4 21.9 22.0 61.4 61.4 7.6 9.2 7.8 300.3 280.7 0.00 0.0000000 69.5 73.1
2020-09-27 03:40:00 61.4 22.1 22.3 61.4 61.4 8.7 9.6 8.2 284.7 285.7 0.00 0.0000000 69.4 73.0
2020-09-27 03:45:00 61.0 22.7 22.6 61.0 61.0 7.6 8.3 7.5 294.5 280.5 0.00 0.0000000 69.3 72.9
2020-09-27 03:50:00 60.6 22.8 22.3 60.6 60.6 8.0 9.0 8.0 285.0 286.2 0.00 0.0000000 69.2 72.9
2020-09-27 03:55:00 60.2 23.5 22.7 60.2 60.2 6.9 8.5 7.7 290.8 284.6 0.00 0.0000000 69.1 72.8
2020-09-27 04:00:00 60.2 23.3 22.6 60.2 60.2 6.2 9.0 7.5 273.7 278.7 0.00 0.0000000 69.0 72.7
2020-09-27 04:05:00 60.7 22.6 22.2 60.7 60.7 9.7 9.7 8.2 272.6 278.1 0.00 0.0000000 68.9 72.6
2020-09-27 04:10:00 60.5 23.0 22.5 60.5 60.5 7.2 9.6 8.0 284.1 281.3 0.00 0.0000000 68.9 72.5
2020-09-27 04:15:00 60.1 23.5 22.7 60.1 60.1 7.2 8.5 7.2 278.7 281.0 0.00 0.0000000 68.8 72.5
2020-09-27 04:20:00 60.0 23.4 22.5 60.0 60.0 7.6 9.0 7.6 274.3 285.4 0.00 0.0000000 68.7 72.4
2020-09-27 04:25:00 60.2 23.5 22.8 60.2 60.2 7.1 8.8 7.9 292.3 289.1 0.00 0.0000000 68.6 72.3
2020-09-27 04:30:00 60.2 23.3 22.5 60.2 60.2 9.2 9.2 7.9 290.4 289.0 0.00 0.0000000 68.6 72.3
2020-09-27 04:35:00 59.8 24.9 23.8 59.8 59.8 6.5 8.1 7.6 286.9 290.0 0.00 0.0000000 68.5 72.2
2020-09-27 04:40:00 59.3 28.1 26.2 59.3 59.3 8.0 9.0 7.3 295.7 291.5 0.00 0.0000000 68.4 72.1
2020-09-27 04:45:00 58.4 29.7 26.9 58.4 58.4 7.2 8.7 7.1 291.8 298.1 0.00 0.0000000 68.3 72.1
2020-09-27 04:50:00 58.3 29.2 26.3 58.3 58.3 5.8 7.4 6.6 292.9 298.4 0.00 0.0000000 68.3 72.0
2020-09-27 04:55:00 58.9 27.9 25.7 58.9 58.9 8.7 8.8 7.5 289.0 292.2 0.00 0.0000000 68.2 71.9
2020-09-27 05:00:00 60.5 26.2 25.6 60.5 60.5 8.8 10.5 8.9 293.7 293.2 0.00 0.0000000 68.1 71.9
2020-09-27 05:05:00 61.5 23.9 24.3 61.5 61.5 10.1 10.8 9.7 286.5 297.9 0.00 0.0000000 68.1 71.8
2020-09-27 05:10:00 62.5 22.0 23.1 62.5 62.5 8.8 11.0 9.4 311.8 302.1 0.00 0.0000000 68.0 71.7
2020-09-27 05:15:00 62.9 20.7 22.0 62.9 62.9 10.8 10.8 9.4 317.9 310.6 0.00 0.0000000 68.0 71.7
2020-09-27 05:20:00 63.8 18.9 20.6 63.8 63.8 10.3 11.2 10.3 313.9 313.0 0.00 0.0000000 67.9 71.6
2020-09-27 05:25:00 64.3 18.4 20.4 64.3 64.3 10.1 11.3 9.9 319.5 318.0 0.00 0.0000000 67.9 71.6
2020-09-27 05:30:00 63.4 19.2 20.7 63.4 63.4 9.6 11.2 9.9 314.6 318.8 0.00 0.0000000 67.8 71.5
2020-09-27 05:35:00 62.8 19.7 20.7 62.8 62.8 9.2 11.0 9.7 310.5 314.5 0.00 0.0000000 67.8 71.5
2020-09-27 05:40:00 62.5 20.2 21.1 62.5 62.5 10.5 10.8 9.6 319.3 312.3 0.00 0.0000000 67.8 71.4
2020-09-27 05:45:00 62.3 20.3 21.1 62.3 62.3 8.5 11.3 9.7 321.0 314.4 0.00 0.0000000 67.7 71.3
2020-09-27 05:50:00 62.3 20.1 20.8 62.3 62.3 11.0 11.2 9.5 309.4 317.8 0.00 0.0000000 67.7 71.3
2020-09-27 05:55:00 62.0 20.2 20.7 62.0 62.0 11.5 11.5 10.7 314.6 314.6 0.00 0.0000000 67.7 71.2
2020-09-27 06:00:00 62.5 19.7 20.5 62.5 62.5 11.2 13.3 11.4 295.8 313.7 0.00 0.0000000 67.6 71.2
2020-09-27 06:05:00 62.4 20.0 20.8 62.4 62.4 12.4 12.4 11.5 313.2 319.9 0.00 0.0000000 67.6 71.1
2020-09-27 06:10:00 62.2 20.6 21.4 62.2 62.2 11.0 13.0 11.1 320.1 327.7 0.00 0.0000000 67.6 71.1
2020-09-27 06:15:00 61.3 22.1 22.3 61.3 61.3 11.3 11.7 10.3 335.3 336.5 0.00 0.0000000 67.5 71.0
2020-09-27 06:20:00 61.1 22.2 22.2 61.1 61.1 11.3 11.9 10.5 321.2 332.2 0.00 0.0000000 67.5 71.0
2020-09-27 06:25:00 60.8 22.7 22.4 60.8 60.8 13.3 13.3 11.2 346.1 337.4 0.00 0.0000000 67.4 70.9
2020-09-27 06:30:00 61.1 24.1 24.1 61.1 61.1 10.6 13.3 11.2 336.5 343.2 0.00 0.0000000 67.4 70.9
2020-09-27 06:35:00 61.8 24.8 25.3 61.8 61.8 11.5 14.2 11.4 344.0 341.1 0.00 0.0000000 67.3 70.8
2020-09-27 06:40:00 62.3 24.4 25.4 62.3 62.3 10.8 13.3 11.2 343.7 347.5 0.00 0.0000000 67.3 70.8
2020-09-27 06:45:00 63.0 24.9 26.6 63.0 63.0 12.8 13.3 11.2 345.0 344.4 0.00 0.0000518 67.2 70.8
2020-09-27 06:50:00 62.7 25.9 27.2 62.7 62.7 10.1 14.9 11.5 347.1 346.7 0.00 0.0007542 67.2 70.7
2020-09-27 06:55:00 62.4 27.3 28.3 62.4 62.4 12.4 14.4 11.6 345.6 345.4 0.00 0.0023760 67.1 70.7
2020-09-27 07:00:00 63.3 28.5 30.1 63.3 63.3 13.5 15.6 13.8 350.1 343.1 0.00 0.0055491 67.1 70.6
2020-09-27 07:05:00 63.8 28.9 30.8 63.8 63.8 13.5 14.9 11.7 1.0 345.6 0.00 0.0103110 67.1 70.6
2020-09-27 07:10:00 64.2 29.8 32.0 64.2 64.2 12.4 17.2 14.0 337.5 346.1 0.00 0.0151275 67.0 70.5
2020-09-27 07:15:00 63.8 30.2 31.9 63.8 63.8 16.4 18.7 15.6 344.5 338.0 0.00 0.0193594 67.0 70.5
2020-09-27 07:20:00 63.8 30.5 32.2 63.8 63.8 8.7 15.8 11.7 340.2 345.4 0.00 0.0244236 67.0 70.5
2020-09-27 07:25:00 63.6 30.9 32.3 63.6 63.6 11.3 14.9 11.3 338.8 341.6 0.00 0.0294436 67.1 70.4
2020-09-27 07:30:00 63.8 30.8 32.4 63.8 63.8 13.5 15.8 12.8 343.9 341.7 0.00 0.0343543 67.1 70.4
2020-09-27 07:35:00 64.1 30.7 32.6 64.1 64.1 13.9 17.6 13.5 339.6 341.9 0.00 0.0392831 67.1 70.4
2020-09-27 07:40:00 64.4 30.6 32.8 64.4 64.4 15.6 17.2 14.0 340.0 343.3 0.00 0.0439770 67.2 70.3
2020-09-27 07:45:00 64.4 30.7 32.8 64.4 64.4 11.9 14.9 12.5 338.1 341.9 0.00 0.0486497 67.2 70.3
2020-09-27 07:50:00 64.3 30.9 32.9 64.3 64.3 11.9 15.8 13.0 336.7 343.3 0.00 0.0535777 67.3 70.3
2020-09-27 07:55:00 64.6 31.0 33.3 64.6 64.6 5.8 15.3 11.3 9.8 350.1 0.00 0.0587190 67.4 70.3
2020-09-27 08:00:00 64.9 30.8 33.4 64.9 64.9 8.1 12.8 9.6 12.3 349.1 0.00 0.0641521 67.5 70.3
2020-09-27 08:05:00 64.9 31.0 33.5 64.9 64.9 9.9 13.0 10.0 349.5 349.5 0.00 0.0694628 67.6 70.3
2020-09-27 08:10:00 65.0 31.6 34.1 65.0 65.0 10.1 12.2 10.1 336.9 349.2 0.00 0.0733575 67.7 70.2
2020-09-27 08:15:00 65.2 32.5 35.0 65.2 65.2 11.0 14.4 11.1 349.5 346.9 0.00 0.0781816 67.8 70.3
2020-09-27 08:20:00 64.9 34.9 36.5 64.9 64.9 13.5 16.2 13.2 0.1 354.8 0.00 0.0844192 67.9 70.3
2020-09-27 08:25:00 64.8 35.1 36.6 64.8 64.8 12.6 17.1 13.0 331.9 347.4 0.00 0.0906871 68.1 70.3
2020-09-27 08:30:00 65.3 34.8 36.8 65.3 65.3 12.1 13.3 10.8 326.0 346.1 0.00 0.0959426 68.2 70.3
2020-09-27 08:35:00 65.0 35.7 37.1 65.0 65.0 9.4 15.3 12.4 348.1 346.5 0.00 0.1011948 68.4 70.3
2020-09-27 08:40:00 65.6 35.4 37.5 65.6 65.6 11.5 13.9 10.8 348.9 344.2 0.00 0.1058025 68.6 70.4
2020-09-27 08:45:00 66.4 34.4 37.4 66.4 66.4 9.2 12.6 8.8 344.9 352.2 0.00 0.1116866 68.8 70.4
2020-09-27 08:50:00 66.9 34.0 37.6 66.9 66.9 10.8 13.1 9.2 349.4 353.6 0.00 0.1173336 69.0 70.4
2020-09-27 08:55:00 67.2 34.2 38.0 67.2 67.2 10.6 14.0 11.0 341.4 350.6 0.00 0.1227129 69.1 70.5
2020-09-27 09:00:00 67.7 34.3 38.5 67.7 67.7 13.9 14.4 12.1 349.2 346.9 0.00 0.1281859 69.3 70.5
2020-09-27 09:05:00 68.0 34.8 39.1 68.0 68.0 12.2 18.1 12.6 346.9 342.0 0.00 0.1334162 69.6 70.6
2020-09-27 09:10:00 68.6 35.1 40.0 68.6 68.6 17.6 20.1 13.7 343.0 344.1 0.00 0.1385294 69.8 70.7
2020-09-27 09:15:00 68.4 36.1 40.5 68.4 68.4 10.8 19.2 14.7 17.8 346.3 0.00 0.1431060 70.0 70.7
2020-09-27 09:20:00 68.9 35.1 40.2 68.9 68.9 11.7 16.5 11.3 340.7 350.2 0.00 0.1492576 70.3 70.8
2020-09-27 09:25:00 69.1 35.6 40.7 69.1 69.1 12.1 15.1 10.9 9.1 356.5 0.00 0.1544193 70.6 70.9
2020-09-27 09:30:00 68.6 36.1 40.6 68.6 68.6 13.7 17.2 14.5 326.2 348.0 0.00 0.1593803 70.9 71.0
2020-09-27 09:35:00 69.4 36.2 41.5 69.4 69.4 10.1 13.5 10.1 11.6 3.4 0.00 0.1648700 71.2 71.1
2020-09-27 09:40:00 69.6 35.3 41.0 69.6 69.6 12.6 18.1 14.8 338.7 346.9 0.00 0.1688528 71.5 71.2
2020-09-27 09:45:00 70.3 34.8 41.1 70.3 70.3 13.0 15.6 11.7 348.2 347.2 0.00 0.1721261 71.8 71.3
2020-09-27 09:50:00 70.3 34.9 41.3 70.3 70.3 13.3 17.2 12.8 345.6 344.7 0.00 0.1750056 72.1 71.4
2020-09-27 09:55:00 70.6 34.5 41.3 70.6 70.6 9.2 16.4 11.6 345.9 341.3 0.00 0.1761734 72.4 71.5
2020-09-27 10:00:00 71.2 33.8 41.2 71.2 71.2 12.1 14.7 11.6 333.0 343.7 0.00 0.1872302 72.7 71.6
2020-09-27 10:05:00 71.4 33.6 41.3 71.4 71.4 7.6 13.7 10.2 338.8 347.1 0.00 0.1924420 73.1 71.7
2020-09-27 10:10:00 72.0 32.6 41.0 72.0 72.0 13.0 15.8 12.0 347.3 332.8 0.00 0.1973315 73.4 71.9
2020-09-27 10:15:00 72.1 32.7 41.2 72.1 72.1 15.6 17.8 14.5 17.3 346.6 0.00 0.1982857 73.8 72.0
2020-09-27 10:20:00 72.1 33.4 41.7 72.1 72.1 12.6 16.5 13.6 344.2 338.3 0.00 0.1989549 74.1 72.2
2020-09-27 10:25:00 72.1 33.1 41.4 72.1 72.1 12.4 19.8 12.6 0.2 349.9 0.00 0.1960479 74.5 72.3
2020-09-27 10:30:00 72.3 33.6 42.0 72.3 72.3 14.2 14.9 11.3 326.6 346.8 0.00 0.2029755 74.8 72.5
2020-09-27 10:35:00 73.1 32.9 42.2 73.1 73.1 15.3 15.3 11.6 345.5 342.5 0.00 0.2074077 75.0 72.6
2020-09-27 10:40:00 73.7 32.9 42.7 73.7 73.7 9.0 16.2 11.7 350.3 346.8 0.00 0.2101407 75.3 72.8
2020-09-27 10:45:00 74.0 32.6 42.7 74.0 74.0 13.5 16.7 12.1 343.7 343.9 0.00 0.2118823 75.5 73.0
2020-09-27 10:50:00 74.2 32.6 43.0 74.2 74.2 12.4 14.6 10.6 341.0 354.2 0.00 0.2177054 75.7 73.1
2020-09-27 10:55:00 74.3 32.5 42.9 74.3 74.3 6.9 13.9 11.0 337.5 353.2 0.00 0.2229378 76.0 73.2
2020-09-27 11:00:00 74.4 32.5 43.0 74.4 74.4 10.8 12.8 9.8 6.0 355.4 0.00 0.2257291 76.3 73.3
2020-09-27 11:05:00 74.3 32.3 42.8 74.3 74.3 6.9 16.5 10.4 42.3 0.3 0.00 0.2286504 76.6 73.5
2020-09-27 11:10:00 74.5 31.9 42.6 74.5 74.5 14.4 18.5 12.8 333.2 351.0 0.00 0.2311464 76.9 73.6
2020-09-27 11:15:00 74.5 32.0 42.6 74.5 74.5 7.4 18.0 11.2 9.9 1.4 0.00 0.2326324 77.3 73.8
2020-09-27 11:20:00 74.9 31.5 42.6 74.9 74.9 13.5 18.9 13.3 0.3 346.8 0.00 0.2337823 77.6 73.9
2020-09-27 11:25:00 75.1 31.5 42.8 75.1 75.1 15.5 17.1 13.0 346.1 345.6 0.00 0.2319376 78.0 74.1
2020-09-27 11:30:00 74.6 31.7 42.6 74.6 74.6 7.1 16.0 11.9 343.4 345.3 0.00 0.2413393 78.3 74.2
2020-09-27 11:35:00 75.7 31.1 43.0 75.7 75.7 9.2 15.6 10.7 334.2 353.6 0.00 0.2447368 78.6 74.4
2020-09-27 11:40:00 75.5 30.7 42.5 75.5 75.5 6.5 18.3 12.2 6.8 355.3 0.00 0.2442948 78.9 74.6
2020-09-27 11:45:00 76.4 29.6 42.3 76.4 76.4 11.2 17.4 9.7 39.8 356.8 0.00 0.2460895 79.3 74.8
2020-09-27 11:50:00 75.9 30.8 42.9 75.9 75.9 8.3 16.4 11.2 327.6 347.0 0.00 0.2475362 79.6 75.0
2020-09-27 11:55:00 76.8 29.6 42.7 76.8 76.8 8.0 14.0 10.0 348.3 356.6 0.00 0.2499729 79.9 75.2
2020-09-27 12:00:00 76.7 29.8 42.8 76.7 76.7 8.7 11.9 8.0 10.5 5.3 0.00 0.2522872 80.3 75.4
2020-09-27 12:05:00 77.0 29.0 42.3 77.0 77.0 9.4 13.7 9.8 324.1 348.8 0.00 0.2539643 80.6 75.6
2020-09-27 12:10:00 77.5 29.8 43.5 77.5 77.5 7.2 11.7 8.3 1.2 0.7 0.00 0.2554325 80.9 75.7
2020-09-27 12:15:00 77.5 28.8 42.5 77.5 77.5 9.7 13.7 8.6 24.9 7.3 0.00 0.2565169 81.3 75.9
2020-09-27 12:20:00 78.4 27.2 41.8 78.4 78.4 12.6 16.2 10.5 1.7 348.6 0.00 0.2572283 81.6 76.1
2020-09-27 12:25:00 79.0 27.9 43.0 79.0 79.0 12.2 14.2 10.6 334.9 356.7 0.00 0.2569473 82.0 76.3
2020-09-27 12:30:00 79.4 26.6 42.1 79.4 79.4 7.6 15.1 8.9 36.4 0.6 0.00 0.2576773 82.3 76.4
2020-09-27 12:35:00 79.2 27.4 42.7 79.2 79.2 6.0 14.2 8.6 58.0 1.4 0.00 0.2583075 82.7 76.6
2020-09-27 12:40:00 80.6 24.8 41.3 80.6 80.6 8.5 14.9 8.2 339.5 9.3 0.00 0.2577498 83.0 76.8
2020-09-27 12:45:00 80.6 25.8 42.4 80.6 80.6 7.8 12.4 8.3 0.4 1.7 0.00 0.2580107 83.4 77.0
2020-09-27 12:50:00 80.8 24.4 41.1 80.8 80.8 6.7 14.0 8.7 34.4 5.0 0.00 0.2577437 83.7 77.1
2020-09-27 12:55:00 81.0 23.7 40.5 81.0 81.0 13.0 13.3 7.9 342.7 10.0 0.00 0.2576416 84.0 77.3
2020-09-27 13:00:00 80.6 24.6 41.1 80.6 80.6 8.0 13.1 8.1 3.8 356.9 0.00 0.2571911 84.3 77.5
2020-09-27 13:05:00 80.9 24.0 40.8 80.9 80.9 10.8 12.2 8.7 36.7 11.4 0.00 0.2569969 84.7 77.6
2020-09-27 13:10:00 81.4 23.7 40.9 81.4 81.4 10.6 15.8 11.1 21.6 354.3 0.00 0.2549475 85.0 77.8
2020-09-27 13:15:00 81.5 23.7 40.9 81.5 81.5 11.5 11.5 8.3 342.8 6.2 0.00 0.2549083 85.3 78.0
2020-09-27 13:20:00 80.3 25.4 41.6 80.3 80.3 8.3 13.7 9.7 14.9 24.0 0.00 0.2533636 85.6 78.2
2020-09-27 13:25:00 81.1 24.1 40.9 81.1 81.1 9.6 14.9 10.6 343.8 352.6 0.00 0.2521952 85.8 78.3
2020-09-27 13:30:00 80.5 25.8 42.2 80.5 80.5 11.3 16.2 9.8 349.2 20.3 0.00 0.2512404 86.1 78.5
2020-09-27 13:35:00 81.4 24.8 41.9 81.4 81.4 10.3 15.3 9.7 14.6 19.1 0.00 0.2485708 86.3 78.7
2020-09-27 13:40:00 80.6 26.1 42.7 80.6 80.6 9.0 16.0 11.0 48.3 14.3 0.00 0.2470980 86.6 78.9
2020-09-27 13:45:00 80.5 26.2 42.7 80.5 80.5 8.1 17.2 11.0 13.1 4.6 0.00 0.2453435 86.8 79.1
2020-09-27 13:50:00 80.6 25.8 42.3 80.6 80.6 13.0 14.6 10.8 331.6 8.2 0.00 0.2432090 86.9 79.3
2020-09-27 13:55:00 80.9 24.9 41.7 80.9 80.9 15.1 16.5 11.6 343.3 4.9 0.00 0.2414074 87.1 79.5
2020-09-27 14:00:00 80.6 25.5 42.0 80.6 80.6 17.6 18.7 12.0 348.9 0.8 0.00 0.2391999 87.3 79.6
2020-09-27 14:05:00 80.0 26.3 42.3 80.0 80.0 10.3 18.9 12.0 6.4 358.3 0.00 0.2363305 87.4 79.8
2020-09-27 14:10:00 80.8 25.9 42.6 80.8 80.8 10.8 16.5 11.4 16.3 3.0 0.00 0.2342496 87.5 80.0
2020-09-27 14:15:00 80.2 26.8 43.0 80.2 80.2 12.1 12.1 9.4 326.5 11.2 0.00 0.2312025 87.7 80.1
2020-09-27 14:20:00 80.6 25.4 42.0 80.6 80.6 9.0 21.5 11.9 22.7 9.4 0.00 0.2273562 87.8 80.3
2020-09-27 14:25:00 81.0 24.8 41.7 81.0 81.0 9.0 16.7 10.0 6.2 8.3 0.00 0.2249140 87.9 80.5
2020-09-27 14:30:00 81.6 24.8 42.2 81.6 81.6 13.9 15.8 8.0 337.6 11.4 0.00 0.2226116 88.1 80.6
2020-09-27 14:35:00 80.5 25.3 41.7 80.5 80.5 13.0 16.5 11.5 350.6 8.4 0.00 0.2200903 88.1 80.7
2020-09-27 14:40:00 80.2 26.1 42.3 80.2 80.2 13.1 14.0 9.8 0.0 16.7 0.00 0.2165077 88.2 80.9
2020-09-27 14:45:00 80.3 24.9 41.2 80.3 80.3 11.5 14.0 9.8 346.1 2.9 0.00 0.2130651 88.3 81.0
2020-09-27 14:50:00 80.8 24.8 41.5 80.8 80.8 9.6 13.1 9.1 17.5 6.1 0.00 0.2092001 88.4 81.1
2020-09-27 14:55:00 79.9 26.0 41.9 79.9 79.9 10.5 15.3 10.3 34.2 12.6 0.00 0.2058682 88.5 81.3
2020-09-27 15:00:00 79.9 25.8 41.8 79.9 79.9 11.2 16.2 10.8 340.7 356.8 0.00 0.2019064 88.5 81.4
2020-09-27 15:05:00 79.6 26.0 41.8 79.6 79.6 9.7 16.7 9.6 17.4 17.9 0.00 0.1981576 88.6 81.5
2020-09-27 15:10:00 79.6 26.0 41.7 79.6 79.6 10.1 13.7 10.0 262.7 9.6 0.00 0.1941728 88.7 81.6
2020-09-27 15:15:00 80.1 24.8 40.9 80.1 80.1 12.8 14.9 10.3 17.1 12.0 0.00 0.1904810 88.7 81.8
2020-09-27 15:20:00 79.9 26.0 41.9 79.9 79.9 9.9 15.6 9.4 350.1 360.0 0.00 0.1861203 88.7 81.8
2020-09-27 15:25:00 79.6 26.4 42.2 79.6 79.6 12.1 13.9 10.4 18.0 11.6 0.00 0.1823567 88.7 81.9
2020-09-27 15:30:00 79.5 26.7 42.4 79.5 79.5 13.7 17.2 10.8 44.9 26.4 0.00 0.1776769 88.7 82.0
2020-09-27 15:35:00 79.7 26.4 42.2 79.7 79.7 9.0 15.3 11.0 70.2 21.6 0.00 0.1729256 88.7 82.1
2020-09-27 15:40:00 79.9 26.9 42.9 79.9 79.9 14.2 15.6 12.4 19.2 41.8 0.00 0.1689998 88.7 82.2
2020-09-27 15:45:00 79.3 27.0 42.4 79.3 79.3 13.3 17.8 12.7 28.1 44.5 0.00 0.1648560 88.6 82.3
2020-09-27 15:50:00 79.4 26.8 42.3 79.4 79.4 13.9 16.9 12.1 32.1 41.4 0.00 0.1613148 88.6 82.3
2020-09-27 15:55:00 79.2 29.7 44.8 79.2 79.2 15.5 16.9 12.5 47.0 41.5 0.00 0.1568097 88.5 82.4
2020-09-27 16:00:00 78.1 32.5 46.2 78.1 78.1 22.1 23.9 20.0 58.6 50.1 0.00 0.1509736 88.4 82.4
2020-09-27 16:05:00 77.6 33.3 46.5 77.6 77.6 19.4 23.3 18.4 47.3 48.6 0.00 0.1450479 88.3 82.5
2020-09-27 16:10:00 77.1 33.5 46.2 77.1 77.1 15.6 19.6 13.7 42.4 41.1 0.00 0.1401516 88.2 82.5
2020-09-27 16:15:00 76.3 34.1 46.0 76.3 76.3 15.3 24.4 14.4 49.0 37.9 0.00 0.1359221 88.1 82.5
2020-09-27 16:20:00 76.2 34.9 46.4 76.2 76.2 10.8 18.9 12.7 62.9 31.7 0.00 0.1304560 87.9 82.5
2020-09-27 16:25:00 75.9 34.9 46.2 75.9 75.9 21.4 21.4 15.2 55.2 42.2 0.00 0.1256256 87.7 82.5
2020-09-27 16:30:00 75.9 34.9 46.2 75.9 75.9 18.7 24.4 15.0 71.2 42.3 0.00 0.1204252 87.6 82.5
2020-09-27 16:35:00 75.7 35.9 46.8 75.7 75.7 15.3 25.3 18.8 52.9 50.4 0.00 0.1149146 87.4 82.5
2020-09-27 16:40:00 75.4 35.9 46.5 75.4 75.4 19.0 23.5 19.0 70.0 51.6 0.00 0.1095102 87.2 82.5
2020-09-27 16:45:00 75.3 35.7 46.2 75.3 75.3 16.9 28.5 20.5 48.3 53.3 0.00 0.1055548 87.0 82.4
2020-09-27 16:50:00 75.0 35.7 46.0 75.0 75.0 20.3 25.6 20.0 52.7 51.6 0.00 0.1012958 86.8 82.4
2020-09-27 16:55:00 75.1 35.3 45.8 75.1 75.1 16.9 22.8 17.2 24.2 49.1 0.00 0.0959825 86.6 82.4
2020-09-27 17:00:00 74.8 35.9 46.0 74.8 74.8 17.1 21.4 16.7 46.8 51.4 0.00 0.0905210 86.3 82.3
2020-09-27 17:05:00 74.3 36.0 45.6 74.3 74.3 20.3 25.1 19.6 60.7 55.5 0.00 0.0850746 86.1 82.3
2020-09-27 17:10:00 74.3 35.5 45.2 74.3 74.3 17.2 22.4 18.2 51.9 53.5 0.00 0.0804058 85.9 82.2
2020-09-27 17:15:00 73.3 36.7 45.3 73.3 73.3 14.0 24.2 16.5 47.8 43.1 0.00 0.0747340 85.6 82.2
2020-09-27 17:20:00 73.4 36.7 45.3 73.4 73.4 17.6 22.8 19.2 53.8 56.1 0.00 0.0704068 85.4 82.1
2020-09-27 17:25:00 73.4 37.8 46.1 73.4 73.4 13.7 23.2 17.3 52.5 46.7 0.00 0.0646943 85.1 82.0
2020-09-27 17:30:00 72.7 41.4 47.9 72.7 72.7 20.5 20.5 17.3 51.9 47.4 0.00 0.0598139 84.9 82.0
2020-09-27 17:35:00 72.1 42.5 48.1 72.1 72.1 13.3 24.0 18.6 50.7 51.7 0.00 0.0553231 84.6 81.9
2020-09-27 17:40:00 71.2 44.1 48.3 71.2 71.2 22.4 22.4 17.1 71.0 47.6 0.00 0.0494604 84.3 81.8
2020-09-27 17:45:00 70.8 44.0 47.8 70.8 70.8 20.3 23.0 20.3 53.5 52.3 0.00 0.0449973 84.1 81.7
2020-09-27 17:50:00 70.6 43.6 47.4 70.6 70.6 13.1 20.1 15.5 75.6 47.1 0.00 0.0404574 83.8 81.6
2020-09-27 17:55:00 70.3 44.4 47.6 70.3 70.3 19.0 21.7 17.1 50.8 48.6 0.00 0.0354280 83.5 81.5
2020-09-27 18:00:00 69.7 45.2 47.5 69.7 69.7 18.7 23.7 19.2 48.9 49.4 0.00 0.0304853 83.2 81.5
2020-09-27 18:05:00 69.3 45.4 47.2 69.3 69.3 14.0 21.5 17.1 40.8 48.8 0.00 0.0261272 82.9 81.3
2020-09-27 18:10:00 68.8 45.3 46.7 68.8 68.8 20.1 20.5 15.6 56.0 49.0 0.00 0.0212991 82.6 81.3
2020-09-27 18:15:00 68.5 44.1 45.8 68.5 68.5 13.9 19.8 15.2 52.1 46.0 0.00 0.0167278 82.3 81.1
2020-09-27 18:20:00 68.3 42.5 44.6 68.3 68.3 18.3 21.5 16.8 49.3 48.5 0.00 0.0123557 82.0 81.0
2020-09-27 18:25:00 67.9 41.2 43.4 67.9 67.9 14.6 20.1 15.2 49.0 47.0 0.00 0.0084800 81.7 80.9
2020-09-27 18:30:00 67.9 38.2 41.5 67.9 67.9 20.3 21.0 15.8 49.9 46.8 0.00 0.0051759 81.4 80.8
2020-09-27 18:35:00 67.4 37.5 40.6 67.4 67.4 15.8 20.8 15.5 36.4 47.2 0.00 0.0025689 81.1 80.7
2020-09-27 18:40:00 67.1 36.0 39.2 67.1 67.1 22.3 22.8 17.6 58.3 44.6 0.00 0.0008596 80.8 80.5
2020-09-27 18:45:00 66.3 35.9 38.5 66.3 66.3 17.4 23.3 19.8 36.0 50.0 0.00 0.0000330 80.5 80.4
2020-09-27 18:50:00 66.0 36.1 38.3 66.0 66.0 14.7 21.7 17.9 37.9 48.4 0.00 0.0000000 80.2 80.3
2020-09-27 18:55:00 65.4 36.6 38.2 65.4 65.4 16.2 21.5 17.3 49.3 52.0 0.00 0.0000000 79.8 80.1
2020-09-27 19:00:00 65.0 36.9 38.0 65.0 65.0 19.2 22.6 18.4 46.0 52.6 0.00 0.0000000 79.6 80.0
2020-09-27 19:05:00 64.6 37.8 38.3 64.6 64.6 13.1 19.9 17.3 65.4 52.3 0.00 0.0000000 79.2 79.9
2020-09-27 19:10:00 64.1 38.2 38.1 64.1 64.1 18.3 22.8 19.6 41.0 53.0 0.00 0.0000000 79.0 79.7
2020-09-27 19:15:00 63.6 37.7 37.3 63.6 63.6 19.2 24.4 17.9 55.4 52.1 0.00 0.0000000 78.7 79.6
2020-09-27 19:20:00 63.3 37.4 36.8 63.3 63.3 17.2 22.8 17.4 54.1 51.7 0.00 0.0000000 78.4 79.4
2020-09-27 19:25:00 62.9 36.5 35.9 62.9 62.9 19.6 24.0 18.4 55.3 50.0 0.00 0.0000000 78.1 79.3
2020-09-27 19:30:00 62.5 36.5 35.5 62.5 62.5 24.0 26.5 21.1 42.8 48.9 0.00 0.0000000 77.8 79.1
2020-09-27 19:35:00 62.2 36.9 35.5 62.2 62.2 27.2 27.2 19.2 46.9 50.4 0.00 0.0000000 77.6 79.0
2020-09-27 19:40:00 61.9 37.4 35.5 61.9 61.9 16.7 26.0 20.9 54.5 51.1 0.00 0.0000000 77.3 78.8
2020-09-27 19:45:00 61.5 37.9 35.6 61.5 61.5 17.1 21.9 18.4 58.9 46.6 0.00 0.0000000 77.0 78.7
2020-09-27 19:50:00 61.3 38.3 35.7 61.3 61.3 19.9 24.0 19.5 46.7 49.9 0.00 0.0000000 76.8 78.5
2020-09-27 19:55:00 61.1 38.5 35.6 61.1 61.1 23.3 24.8 20.4 40.5 50.3 0.00 0.0000000 76.5 78.4
2020-09-27 20:00:00 60.7 39.1 35.6 60.7 60.7 17.1 26.7 20.9 48.9 52.9 0.00 0.0000000 76.3 78.3
2020-09-27 20:05:00 60.0 39.8 35.5 60.0 60.0 12.2 23.0 16.2 52.1 51.8 0.00 0.0000000 76.0 78.1
2020-09-27 20:10:00 59.9 39.5 35.2 59.9 59.9 21.7 23.9 17.3 57.5 49.5 0.00 0.0000000 75.8 78.0
2020-09-27 20:15:00 59.7 39.8 35.2 59.7 59.7 19.6 24.2 19.7 50.9 48.1 0.00 0.0000000 75.6 77.8
2020-09-27 20:20:00 59.4 40.0 35.1 59.4 59.4 22.1 24.8 19.7 38.6 51.3 0.00 0.0000000 75.4 77.7
2020-09-27 20:25:00 59.1 40.4 35.0 59.1 59.1 22.1 25.6 20.4 42.0 47.1 0.00 0.0000000 75.1 77.6
2020-09-27 20:30:00 58.7 41.0 35.1 58.7 58.7 21.0 22.6 18.1 54.2 52.9 0.00 0.0000000 74.9 77.4
2020-09-27 20:35:00 58.4 41.5 35.1 58.4 58.4 17.4 22.6 18.2 59.8 51.1 0.00 0.0000000 74.7 77.3
2020-09-27 20:40:00 58.0 41.9 35.0 58.0 58.0 20.3 23.7 17.7 45.1 50.3 0.00 0.0000000 74.5 77.2
2020-09-27 20:45:00 57.7 42.3 35.0 57.7 57.7 13.7 23.7 15.9 42.5 50.6 0.00 0.0000000 74.3 77.0
2020-09-27 20:50:00 57.7 42.2 34.8 57.7 57.7 15.5 21.9 16.7 44.0 48.4 0.00 0.0000000 74.1 76.9
2020-09-27 20:55:00 57.5 42.7 35.0 57.5 57.5 17.2 21.9 16.6 46.7 48.6 0.00 0.0000000 73.9 76.7
2020-09-27 21:00:00 57.2 43.1 35.0 57.2 57.2 14.6 19.2 15.5 39.4 48.4 0.00 0.0000000 73.7 76.6
2020-09-27 21:05:00 56.9 43.4 34.9 56.9 56.9 14.4 18.9 15.7 52.0 49.7 0.00 0.0000000 73.5 76.4
2020-09-27 21:10:00 56.6 43.9 34.9 56.6 56.6 17.1 17.4 14.2 67.5 49.1 0.00 0.0000000 73.3 76.3
2020-09-27 21:15:00 56.6 43.9 34.8 56.6 56.6 12.8 21.0 15.4 57.6 50.3 0.00 0.0000000 73.1 76.2
2020-09-27 21:20:00 56.4 44.3 34.9 56.4 56.4 16.9 19.4 15.1 52.0 50.1 0.00 0.0000000 72.9 76.1
2020-09-27 21:25:00 56.2 44.4 34.8 56.2 56.2 15.5 18.3 16.5 53.1 47.8 0.00 0.0000000 72.8 75.9

Data is courtesy of the NM Climate Center. DO NOT USE IN LEGAL PROCEEDINGS.